Elko, NV

5:11 AM PST on January 28, 2015 (GMT -0800)
MesoWest Lamoille Summit Remote NV US NV DOT | Change Station
CLOSE
Current Station
Personal Weather Station
Location: Elko, NV
Elevation: 5786 ft
Nearby Weather Stations

Elev 5786 ft 40.80 °N, 115.72 °W | Updated 45 minutes ago

Overcast
Overcast
37 °F
Feels Like 37 °F
N
3
Wind Variable Wind from WSW
Gusts 6.0 mph

Today
High -- | Low -- °F
--% Chance of Precip.
Yesterday
High -- | Low -- °F
Precip. -- in
6:56 AM 4:55 PM
Waxing Gibbous, 64% visible
Pressure 30.28 in
Visibility 10.0 miles
Clouds Few 2100 ft
Mostly Cloudy 5500 ft
Overcast 9000 ft
Windchill 37 °F
Dew Point 30 °F
Humidity 75%
Rainfall -999.00 in
Snow Depth Not available.
UV 0 out of 12
Pollen .90 out of 12
Air Quality Not available.
Flu Activity Not available.
METAR KEKO 281256Z AUTO 24003KT 10SM FEW021 BKN055 OVC090 03/01 A3027 RMK AO2 SLP254 T00330011

More Conditions Fewer Conditions

Pressure 30.28 in
Visibility 10.0 miles
Clouds Few 2100 ft
Mostly Cloudy 5500 ft
Overcast 9000 ft
Windchill 37 °F
Dew Point 30 °F
Humidity 75%
Rainfall -999.00 in
Snow Depth Not available.
UV 0 out of 12
Pollen .90 out of 12
Air Quality Not available.
Flu Activity Not available.
METAR KEKO 281256Z AUTO 24003KT 10SM FEW021 BKN055 OVC090 03/01 A3027 RMK AO2 SLP254 T00330011

More Conditions Fewer Conditions

10-Day Weather Forecast

Almanac

Astronomy

Jan. 28, 2015 Rise Set
Actual Time
Civil Twilight
Nautical Twilight
Astronomical Twilight
Moon
Length of Visible Light
Length of Day
Tomorrow will be .
, % of the Moon is Illuminated

Today's Extremes

State Highs State Lows

Community

WunderPhotos

Upload Photos

1,791,136 photos uploaded!

WunderBlogs® & News

Nearby

Air Quality

  Air Quality AQ Index Pollutant
Not available.

Snow Depth

Station Depth Elevation

Earthquake Activity

City Distance Mag. Time & Date
Minimum magnitude displayed is 2.5.

Coastal Water Temperatures

Place Temperature

Nearby Weather Stations